Time;durP1;ratioP1;P1;durP2;ratioP2;P2;SDS_P1;SDS_P2;PMS_P1;PMS_P2;Temp;Humidity;BMP_temperature;BMP_pressure;BME280_temperature;BME280_humidity;BME280_pressure;Samples;Min_cycle;Max_cycle;Signal;HPM_P1;HPM_P2
2021/05/24 00:00:08;;;;;;;6.05;3.00;;;;;;;;;;6237843;28;20053;-72
2021/05/24 00:03:09;;;;;;;5.05;2.90;;;;;;;;;;6243407;28;20061;-73
2021/05/24 00:06:10;;;;;;;8.38;3.10;;;;;;;;;;6233986;28;20140;-72
2021/05/24 00:09:12;;;;;;;5.78;3.83;;;;;;;;;;6241469;28;20077;-72
2021/05/24 00:12:14;;;;;;;6.68;3.20;;;;;;;;;;6240096;28;20168;-72
2021/05/24 00:15:16;;;;;;;6.07;2.75;;;;;;;;;;6240359;28;20072;-73
2021/05/24 00:18:18;;;;;;;5.97;3.28;;;;;;;;;;6240866;28;20519;-72
2021/05/24 00:21:20;;;;;;;6.90;3.10;;;;;;;;;;6241365;28;20519;-73
2021/05/24 00:24:21;;;;;;;5.43;3.17;;;;;;;;;;6244883;28;20042;-72
2021/05/24 00:27:23;;;;;;;8.07;2.83;;;;;;;;;;6237984;28;20685;-72
2021/05/24 00:30:26;;;;;;;11.85;4.53;;;;;;;;;;6237520;28;20068;-72
2021/05/24 00:33:27;;;;;;;5.38;3.03;;;;;;;;;;6238577;28;20419;-72
2021/05/24 00:36:28;;;;;;;7.32;3.05;;;;;;;;;;6241036;28;20083;-72
2021/05/24 00:39:29;;;;;;;5.35;3.10;;;;;;;;;;6236743;28;20048;-72
2021/05/24 00:42:32;;;;;;;6.13;3.45;;;;;;;;;;6242309;28;20069;-72
2021/05/24 00:45:33;;;;;;;8.30;3.40;;;;;;;;;;6240178;28;20045;-72
2021/05/24 00:48:34;;;;;;;9.65;3.47;;;;;;;;;;6243202;28;20687;-72
2021/05/24 00:51:35;;;;;;;7.03;3.50;;;;;;;;;;6238421;28;20057;-72
2021/05/24 00:54:36;;;;;;;7.20;3.47;;;;;;;;;;6230436;28;20203;-72
2021/05/24 00:57:39;;;;;;;8.98;3.55;;;;;;;;;;6236357;28;20137;-72
2021/05/24 01:00:42;;;;;;;7.97;3.17;;;;;;;;;;6234463;28;20136;-71
2021/05/24 01:07:05;;;;;;;9.90;3.10;;;;;;;;;;6186272;22;20178;-71
2021/05/24 01:10:07;;;;;;;5.03;3.03;;;;;;;;;;6156082;28;20055;-72
2021/05/24 01:13:11;;;;;;;6.03;3.22;;;;;;;;;;6164716;28;20047;-72
2021/05/24 01:16:13;;;;;;;9.68;3.65;;;;;;;;;;6156387;28;20039;-71
2021/05/24 01:19:14;;;;;;;6.70;3.30;;;;;;;;;;6132114;29;20055;-71
2021/05/24 01:22:19;;;;;;;9.23;3.63;;;;;;;;;;6154052;29;20144;-71
2021/05/24 01:25:27;;;;;;;3.40;2.40;;;;;;;;;;6157419;29;20150;-71
2021/05/24 01:28:28;;;;;;;8.55;3.00;;;;;;;;;;6138151;28;20074;-72
2021/05/24 01:31:30;;;;;;;7.30;2.70;;;;;;;;;;6162621;28;20521;-71
2021/05/24 01:34:33;;;;;;;8.65;3.13;;;;;;;;;;6155325;29;20043;-72
2021/05/24 01:37:35;;;;;;;9.23;2.80;;;;;;;;;;6156404;29;20059;-71
2021/05/24 01:40:37;;;;;;;7.18;2.95;;;;;;;;;;6156223;29;20107;-71
2021/05/24 01:43:39;;;;;;;5.57;2.50;;;;;;;;;;6155293;29;20056;-71
2021/05/24 01:46:40;;;;;;;11.27;3.30;;;;;;;;;;6155702;28;20051;-71
2021/05/24 01:49:47;;;;;;;6.60;2.63;;;;;;;;;;6154414;28;20078;-70
2021/05/24 01:56:58;;;;;;;8.43;2.58;;;;;;;;;;6155654;28;20055;-70
2021/05/24 02:00:03;;;;;;;11.02;3.10;;;;;;;;;;6155899;29;20101;-70
2021/05/24 02:03:07;;;;;;;8.77;2.95;;;;;;;;;;6166366;28;20054;-70
2021/05/24 02:06:08;;;;;;;5.68;2.85;;;;;;;;;;6738460;23;20075;-71
2021/05/24 02:09:09;;;;;;;9.82;2.75;;;;;;;;;;6202872;28;20073;-70
2021/05/24 02:12:18;;;;;;;8.32;3.20;;;;;;;;;;6204111;28;20053;-71
2021/05/24 02:15:23;;;;;;;4.55;2.55;;;;;;;;;;6207434;28;20043;-70
2021/05/24 02:19:06;;;;;;;8.60;3.28;;;;;;;;;;6203673;28;20054;-71
2021/05/24 02:22:15;;;;;;;6.60;2.95;;;;;;;;;;6182660;28;20090;-71
2021/05/24 02:29:25;;;;;;;10.07;3.42;;;;;;;;;;6179470;28;20047;-71
2021/05/24 02:32:26;;;;;;;10.63;3.47;;;;;;;;;;6184708;28;20141;-73
2021/05/24 02:35:28;;;;;;;11.07;3.67;;;;;;;;;;6202428;28;20184;-71
2021/05/24 02:38:30;;;;;;;8.48;3.65;;;;;;;;;;6201687;28;20046;-71
2021/05/24 02:41:31;;;;;;;9.65;3.08;;;;;;;;;;6192368;28;20487;-71
2021/05/24 02:44:33;;;;;;;11.85;3.10;;;;;;;;;;6179122;28;20102;-72
2021/05/24 02:47:35;;;;;;;11.77;3.63;;;;;;;;;;6202046;28;20054;-71
2021/05/24 02:50:36;;;;;;;11.27;3.40;;;;;;;;;;6190928;28;20054;-71
2021/05/24 02:53:37;;;;;;;8.68;3.25;;;;;;;;;;6190325;28;20137;-71
2021/05/24 02:56:39;;;;;;;10.82;3.28;;;;;;;;;;6177684;28;20051;-71
2021/05/24 02:59:41;;;;;;;8.57;3.20;;;;;;;;;;6176698;28;20047;-71
2021/05/24 03:02:46;;;;;;;7.78;2.80;;;;;;;;;;6178173;28;20051;-71
2021/05/24 03:05:48;;;;;;;5.93;3.03;;;;;;;;;;6193994;28;20042;-72
2021/05/24 03:08:50;;;;;;;8.30;3.15;;;;;;;;;;6198939;28;20053;-71
2021/05/24 03:11:52;;;;;;;7.55;2.65;;;;;;;;;;6201058;28;20054;-71
2021/05/24 03:14:54;;;;;;;8.32;2.83;;;;;;;;;;6201378;28;20062;-71
2021/05/24 03:17:55;;;;;;;11.43;3.10;;;;;;;;;;6201527;28;20058;-71
2021/05/24 03:20:57;;;;;;;10.18;3.05;;;;;;;;;;6202218;28;20050;-72
2021/05/24 03:23:58;;;;;;;8.15;2.83;;;;;;;;;;6201270;28;20061;-71
2021/05/24 03:27:00;;;;;;;8.80;2.13;;;;;;;;;;6200941;28;20053;-71
2021/05/24 03:30:04;;;;;;;6.68;2.63;;;;;;;;;;6200872;28;20046;-72
2021/05/24 03:33:06;;;;;;;7.90;2.65;;;;;;;;;;6195200;28;20062;-71
2021/05/24 03:36:08;;;;;;;6.72;2.50;;;;;;;;;;6180640;28;20092;-71
2021/05/24 03:39:09;;;;;;;5.78;2.70;;;;;;;;;;6201608;28;20083;-72
2021/05/24 03:42:13;;;;;;;7.05;2.92;;;;;;;;;;6202078;28;20097;-71
2021/05/24 03:45:16;;;;;;;7.32;2.47;;;;;;;;;;6201782;28;20069;-71
2021/05/24 03:48:17;;;;;;;;;;;;;;;;;;6185533;28;20042;-71
2021/05/24 03:51:19;;;;;;;5.15;2.42;;;;;;;;;;6201425;28;19944;-71
2021/05/24 03:54:20;;;;;;;6.65;3.00;;;;;;;;;;6192293;28;20043;-71
2021/05/24 03:57:22;;;;;;;7.28;2.30;;;;;;;;;;6177559;28;20051;-71
2021/05/24 04:00:24;;;;;;;8.82;2.33;;;;;;;;;;6194380;28;20042;-71
2021/05/24 04:03:25;;;;;;;5.55;2.97;;;;;;;;;;6198559;28;20090;-71
2021/05/24 04:06:27;;;;;;;9.05;2.40;;;;;;;;;;6176989;28;20114;-71
2021/05/24 04:09:28;;;;;;;6.53;2.20;;;;;;;;;;6190776;28;20073;-71
2021/05/24 04:12:30;;;;;;;3.40;1.83;;;;;;;;;;6204361;28;20106;-71
2021/05/24 04:15:32;;;;;;;8.57;2.42;;;;;;;;;;6205927;28;20054;-71
2021/05/24 04:18:35;;;;;;;6.57;2.28;;;;;;;;;;6188070;28;20062;-71
2021/05/24 04:21:36;;;;;;;6.82;2.10;;;;;;;;;;6192096;28;20046;-74
2021/05/24 04:24:38;;;;;;;5.78;1.98;;;;;;;;;;6205214;28;20074;-71
2021/05/24 04:27:39;;;;;;;4.00;1.98;;;;;;;;;;6205519;28;20046;-73
2021/05/24 04:30:42;;;;;;;6.75;2.38;;;;;;;;;;6205355;28;20150;-71
2021/05/24 04:33:44;;;;;;;3.92;1.90;;;;;;;;;;6218184;28;20505;-74
2021/05/24 04:36:45;;;;;;;4.53;2.05;;;;;;;;;;6229555;28;20050;-71
2021/05/24 04:39:46;;;;;;;5.03;2.47;;;;;;;;;;6218449;28;20070;-71
2021/05/24 04:42:48;;;;;;;5.43;2.03;;;;;;;;;;6195302;28;20050;-71
2021/05/24 04:45:50;;;;;;;4.78;2.30;;;;;;;;;;6193376;28;20054;-72
2021/05/24 04:48:52;;;;;;;7.60;2.40;;;;;;;;;;6205012;28;20079;-71
2021/05/24 04:51:53;;;;;;;3.45;2.15;;;;;;;;;;6190402;28;20057;-71
2021/05/24 04:54:54;;;;;;;7.50;2.00;;;;;;;;;;6184490;28;20043;-71
2021/05/24 04:57:56;;;;;;;6.28;2.25;;;;;;;;;;6190393;28;20047;-71
2021/05/24 05:00:58;;;;;;;4.35;1.90;;;;;;;;;;6180215;28;20082;-71
2021/05/24 05:03:59;;;;;;;4.43;1.95;;;;;;;;;;6189326;28;20050;-70
2021/05/24 05:07:00;;;;;;;6.72;2.08;;;;;;;;;;6201462;28;20085;-70
2021/05/24 05:10:07;;;;;;;5.45;1.75;;;;;;;;;;6203648;28;20085;-71
2021/05/24 05:13:08;;;;;;;4.97;2.08;;;;;;;;;;6188809;28;20051;-71
2021/05/24 05:16:11;;;;;;;4.22;1.73;;;;;;;;;;6179809;28;20054;-71
2021/05/24 05:19:13;;;;;;;3.58;2.13;;;;;;;;;;6179514;28;20051;-70
2021/05/24 05:22:14;;;;;;;5.82;1.88;;;;;;;;;;6189178;28;20430;-76
2021/05/24 05:25:16;;;;;;;5.32;1.80;;;;;;;;;;6203499;28;20078;-71
2021/05/24 05:28:24;;;;;;;4.38;2.45;;;;;;;;;;6197764;28;20046;-70
2021/05/24 05:31:26;;;;;;;9.52;2.65;;;;;;;;;;6202452;28;20441;-70
2021/05/24 05:34:28;;;;;;;8.10;3.08;;;;;;;;;;6192394;28;20086;-70
2021/05/24 05:37:29;;;;;;;7.47;3.00;;;;;;;;;;6194291;28;20053;-70
2021/05/24 05:40:31;;;;;;;8.65;3.60;;;;;;;;;;6202564;28;20081;-71
2021/05/24 05:43:32;;;;;;;7.57;3.75;;;;;;;;;;6199386;28;20046;-70
2021/05/24 05:46:35;;;;;;;8.73;3.20;;;;;;;;;;6183694;28;20046;-71
2021/05/24 05:49:36;;;;;;;7.50;3.83;;;;;;;;;;6188024;28;20046;-71
2021/05/24 05:52:38;;;;;;;8.35;4.00;;;;;;;;;;6193251;28;20124;-71
2021/05/24 05:55:39;;;;;;;12.38;4.32;;;;;;;;;;6201728;28;20051;-72
2021/05/24 05:58:40;;;;;;;12.23;4.75;;;;;;;;;;6192667;28;20070;-71
2021/05/24 06:01:42;;;;;;;11.73;4.30;;;;;;;;;;6178122;28;20121;-72
2021/05/24 06:04:43;;;;;;;13.68;4.65;;;;;;;;;;6192552;28;20502;-72
2021/05/24 06:07:44;;;;;;;7.72;4.72;;;;;;;;;;6200909;28;20062;-72
2021/05/24 06:10:45;;;;;;;11.40;4.25;;;;;;;;;;6192836;28;20086;-72
2021/05/24 06:13:46;;;;;;;10.05;4.60;;;;;;;;;;6181417;28;20078;-72
2021/05/24 06:16:49;;;;;;;7.13;4.10;;;;;;;;;;6192063;28;20077;-72
2021/05/24 06:19:50;;;;;;;6.78;4.40;;;;;;;;;;6189213;28;20135;-72
2021/05/24 06:22:51;;;;;;;8.85;4.78;;;;;;;;;;6199045;28;20073;-72
2021/05/24 06:25:52;;;;;;;7.70;4.97;;;;;;;;;;6193985;28;20125;-74
2021/05/24 06:28:53;;;;;;;9.50;5.47;;;;;;;;;;6189238;28;20133;-72
2021/05/24 06:31:56;;;;;;;9.05;5.97;;;;;;;;;;6191469;28;20078;-71
2021/05/24 06:34:57;;;;;;;11.25;5.53;;;;;;;;;;6190680;28;20386;-72
2021/05/24 06:37:58;;;;;;;8.20;5.53;;;;;;;;;;6181373;28;20129;-71
2021/05/24 06:40:59;;;;;;;11.02;5.43;;;;;;;;;;6184267;28;20042;-72
2021/05/24 06:44:00;;;;;;;7.60;4.85;;;;;;;;;;6193788;28;20145;-72
2021/05/24 06:47:02;;;;;;;8.48;4.95;;;;;;;;;;6196300;28;20097;-72
2021/05/24 06:50:05;;;;;;;7.65;4.75;;;;;;;;;;6199009;28;20963;-71
2021/05/24 06:53:06;;;;;;;7.80;4.43;;;;;;;;;;6195788;28;20129;-71
2021/05/24 06:56:07;;;;;;;8.90;5.32;;;;;;;;;;6199643;28;20458;-72
2021/05/24 06:59:08;;;;;;;6.32;4.75;;;;;;;;;;6171147;28;20530;-71
2021/05/24 07:02:10;;;;;;;8.38;5.88;;;;;;;;;;6201182;28;20081;-72
2021/05/24 07:05:12;;;;;;;8.48;5.90;;;;;;;;;;6201863;28;20129;-72
2021/05/24 07:08:14;;;;;;;8.45;6.05;;;;;;;;;;6196338;28;20054;-73
2021/05/24 07:11:15;;;;;;;9.65;5.80;;;;;;;;;;6195081;28;20128;-71
2021/05/24 07:14:16;;;;;;;6.20;5.47;;;;;;;;;;6187816;28;20121;-71
2021/05/24 07:17:18;;;;;;;7.40;5.60;;;;;;;;;;6194796;28;20173;-72
2021/05/24 07:20:19;;;;;;;7.22;4.72;;;;;;;;;;6187689;28;20533;-72
2021/05/24 07:23:21;;;;;;;8.02;4.97;;;;;;;;;;6189654;28;20043;-72
2021/05/24 07:26:22;;;;;;;8.55;5.78;;;;;;;;;;6194927;28;20180;-74
2021/05/24 07:29:23;;;;;;;5.78;4.60;;;;;;;;;;6193217;28;20053;-72
2021/05/24 07:32:25;;;;;;;7.75;4.70;;;;;;;;;;6186494;28;20088;-72
2021/05/24 07:35:27;;;;;;;5.97;4.65;;;;;;;;;;6189344;28;20141;-73
2021/05/24 07:38:28;;;;;;;7.13;5.03;;;;;;;;;;6189562;28;20043;-73
2021/05/24 07:41:29;;;;;;;7.38;4.65;;;;;;;;;;6196397;28;20145;-72
2021/05/24 07:44:32;;;;;;;5.28;3.88;;;;;;;;;;6196127;28;20050;-72
2021/05/24 07:47:34;;;;;;;6.32;4.32;;;;;;;;;;6195449;28;20113;-71
2021/05/24 07:50:35;;;;;;;6.07;3.63;;;;;;;;;;6191261;28;20613;-73
2021/05/24 07:53:36;;;;;;;6.75;3.63;;;;;;;;;;6205583;28;20100;-71
2021/05/24 07:56:37;;;;;;;4.93;3.90;;;;;;;;;;6196278;28;20455;-71
2021/05/24 07:59:39;;;;;;;4.22;2.65;;;;;;;;;;6192868;28;20865;-73
2021/05/24 08:02:41;;;;;;;3.95;2.97;;;;;;;;;;6192443;28;20050;-72
2021/05/24 08:05:42;;;;;;;5.35;3.28;;;;;;;;;;6193941;28;20508;-73
2021/05/24 08:08:43;;;;;;;4.18;2.90;;;;;;;;;;6190921;28;20054;-71
2021/05/24 08:11:44;;;;;;;4.30;2.88;;;;;;;;;;6192700;28;20173;-72
2021/05/24 08:14:46;;;;;;;4.90;2.90;;;;;;;;;;6191298;28;20096;-70
2021/05/24 08:21:09;;;;;;;6.55;3.30;;;;;;;;;;6490588;23;20034;-71
2021/05/24 08:24:10;;;;;;;4.85;3.78;;;;;;;;;;6191733;28;20508;-71
2021/05/24 08:27:11;;;;;;;5.43;3.70;;;;;;;;;;6195757;28;20473;-72
2021/05/24 08:30:13;;;;;;;4.45;3.70;;;;;;;;;;6197360;28;20502;-72
2021/05/24 08:33:14;;;;;;;7.55;4.75;;;;;;;;;;6194275;28;20137;-72
2021/05/24 08:36:16;;;;;;;7.72;3.90;;;;;;;;;;6193719;28;20048;-72
2021/05/24 08:39:17;;;;;;;5.22;3.60;;;;;;;;;;6191301;28;20058;-73
2021/05/24 08:42:18;;;;;;;5.82;3.20;;;;;;;;;;6189684;28;20060;-72
2021/05/24 08:45:19;;;;;;;4.30;3.35;;;;;;;;;;6191597;28;20181;-72
2021/05/24 08:48:21;;;;;;;4.53;3.55;;;;;;;;;;6183584;28;20134;-71
2021/05/24 08:51:22;;;;;;;5.22;3.50;;;;;;;;;;6185130;28;20201;-72
2021/05/24 08:54:24;;;;;;;6.93;3.60;;;;;;;;;;6184534;28;20042;-75
2021/05/24 08:57:25;;;;;;;5.65;3.30;;;;;;;;;;6185182;28;20433;-74
2021/05/24 09:00:26;;;;;;;5.47;4.10;;;;;;;;;;6192169;28;20614;-72
2021/05/24 09:03:32;;;;;;;5.38;4.10;;;;;;;;;;6188919;28;20051;-72
2021/05/24 09:06:38;;;;;;;5.80;4.13;;;;;;;;;;6190254;28;20070;-72
2021/05/24 09:09:40;;;;;;;6.63;3.90;;;;;;;;;;6194209;28;20050;-73
2021/05/24 09:12:41;;;;;;;5.47;3.40;;;;;;;;;;6195099;28;20050;-72
2021/05/24 09:15:43;;;;;;;4.95;3.72;;;;;;;;;;6182984;28;20097;-72
2021/05/24 09:19:09;;;;;;;4.60;3.78;;;;;;;;;;6189106;28;20075;-75
2021/05/24 09:22:11;;;;;;;4.68;3.92;;;;;;;;;;6160601;28;20035;-72
2021/05/24 09:25:12;;;;;;;6.35;3.90;;;;;;;;;;6160366;28;20053;-72
2021/05/24 09:28:27;;;;;;;4.85;3.53;;;;;;;;;;6159010;28;20612;-72
2021/05/24 09:31:32;;;;;;;4.68;3.65;;;;;;;;;;6160419;28;20047;-71
2021/05/24 09:34:34;;;;;;;4.10;3.40;;;;;;;;;;6168383;28;20086;-72
2021/05/24 09:37:37;;;;;;;3.83;3.40;;;;;;;;;;6162936;28;20111;-72
2021/05/24 09:40:38;;;;;;;5.37;3.57;;;;;;;;;;6172404;28;20043;-71
2021/05/24 09:43:41;;;;;;;7.57;4.13;;;;;;;;;;6163050;28;20478;-72
2021/05/24 09:46:43;;;;;;;7.00;4.53;;;;;;;;;;6165126;28;20138;-71
2021/05/24 09:49:44;;;;;;;12.57;4.95;;;;;;;;;;6166533;28;20095;-72
2021/05/24 09:52:47;;;;;;;5.53;4.05;;;;;;;;;;6172852;28;20066;-75
2021/05/24 09:55:48;;;;;;;4.18;3.78;;;;;;;;;;6168088;28;20047;-72
2021/05/24 09:58:59;;;;;;;5.15;3.95;;;;;;;;;;6169978;28;20129;-72
2021/05/24 10:02:02;;;;;;;4.82;3.92;;;;;;;;;;6169770;28;20050;-72
2021/05/24 10:05:03;;;;;;;5.05;4.22;;;;;;;;;;6164768;28;20051;-73
2021/05/24 10:08:06;;;;;;;5.63;4.25;;;;;;;;;;6156306;28;20059;-73
2021/05/24 10:11:07;;;;;;;5.35;4.00;;;;;;;;;;6155207;28;20677;-72
2021/05/24 10:14:08;;;;;;;7.40;3.95;;;;;;;;;;6158296;28;20067;-73
2021/05/24 10:17:14;;;;;;;6.63;4.38;;;;;;;;;;6152578;28;20055;-72
2021/05/24 10:20:15;;;;;;;5.05;4.28;;;;;;;;;;6161615;28;20042;-72
2021/05/24 10:23:17;;;;;;;4.43;4.00;;;;;;;;;;6157250;28;21356;-74
2021/05/24 10:26:19;;;;;;;4.75;3.95;;;;;;;;;;6161344;28;20572;-73
2021/05/24 10:29:20;;;;;;;5.30;3.80;;;;;;;;;;6173649;28;20051;-71
2021/05/24 10:32:22;;;;;;;4.43;4.00;;;;;;;;;;6167023;28;20093;-72
2021/05/24 10:35:35;;;;;;;4.40;3.80;;;;;;;;;;6169906;28;20098;-73
2021/05/24 10:38:37;;;;;;;4.22;3.83;;;;;;;;;;6173188;28;20050;-72
2021/05/24 10:41:43;;;;;;;5.15;3.80;;;;;;;;;;6161387;28;20070;-73
2021/05/24 10:44:46;;;;;;;4.10;3.60;;;;;;;;;;6160653;28;20050;-74
2021/05/24 10:47:54;;;;;;;3.75;3.38;;;;;;;;;;6154438;28;20047;-73
2021/05/24 10:51:10;;;;;;;3.67;2.95;;;;;;;;;;6155965;28;20503;-71
2021/05/24 10:54:12;;;;;;;4.53;3.47;;;;;;;;;;6153851;28;20124;-78
2021/05/24 10:57:18;;;;;;;4.55;3.53;;;;;;;;;;6152761;28;20460;-78
2021/05/24 11:00:19;;;;;;;5.28;3.58;;;;;;;;;;6160150;28;20138;-72
2021/05/24 11:03:20;;;;;;;4.90;4.10;;;;;;;;;;6161611;28;20066;-72
2021/05/24 11:06:23;;;;;;;5.28;3.80;;;;;;;;;;6168732;28;20045;-71
2021/05/24 11:09:29;;;;;;;5.20;4.10;;;;;;;;;;6164890;28;20058;-76
2021/05/24 11:12:31;;;;;;;5.75;4.07;;;;;;;;;;6150969;28;20075;-73
2021/05/24 11:15:33;;;;;;;4.10;3.53;;;;;;;;;;6151710;28;20047;-73
2021/05/24 11:18:40;;;;;;;4.25;3.80;;;;;;;;;;6157089;28;20146;-72
2021/05/24 11:21:46;;;;;;;4.32;3.92;;;;;;;;;;6149850;28;20141;-72
2021/05/24 11:28:38;;;;;;;4.20;3.80;;;;;;;;;;6155597;28;20162;-71
2021/05/24 11:31:44;;;;;;;5.43;4.00;;;;;;;;;;6162558;28;20115;-71
2021/05/24 11:34:45;;;;;;;4.03;2.97;;;;;;;;;;6166202;28;20512;-71
2021/05/24 11:37:46;;;;;;;4.20;3.60;;;;;;;;;;6163722;28;20054;-70
2021/05/24 11:41:11;;;;;;;3.55;3.25;;;;;;;;;;6157810;28;20570;-72
2021/05/24 11:44:12;;;;;;;4.40;2.90;;;;;;;;;;6163411;28;20062;-71
2021/05/24 11:47:16;;;;;;;3.53;2.53;;;;;;;;;;6161802;28;20043;-71
2021/05/24 11:50:17;;;;;;;;;;;;;;;;;;6161717;28;20142;-70
2021/05/24 11:53:18;;;;;;;3.17;2.75;;;;;;;;;;6162398;28;19922;-70
2021/05/24 11:56:20;;;;;;;4.70;2.80;;;;;;;;;;6166158;28;20497;-70
2021/05/24 11:59:23;;;;;;;3.75;2.60;;;;;;;;;;6169708;28;20046;-73
2021/05/24 12:02:25;;;;;;;3.33;2.87;;;;;;;;;;6164119;28;20092;-70
2021/05/24 12:05:26;;;;;;;4.13;2.70;;;;;;;;;;6154824;28;20134;-70
2021/05/24 12:08:27;;;;;;;6.20;3.30;;;;;;;;;;6153982;28;20582;-70
2021/05/24 12:11:29;;;;;;;4.22;3.05;;;;;;;;;;6158966;28;20055;-71
2021/05/24 12:14:32;;;;;;;4.43;3.28;;;;;;;;;;6155804;28;20130;-69
2021/05/24 12:17:35;;;;;;;5.30;3.60;;;;;;;;;;6159333;28;20043;-70
2021/05/24 12:20:36;;;;;;;5.65;2.85;;;;;;;;;;6156864;28;20821;-71
2021/05/24 12:23:48;;;;;;;5.40;3.05;;;;;;;;;;6163844;28;20106;-74
2021/05/24 12:26:52;;;;;;;8.05;3.75;;;;;;;;;;6162135;28;20075;-72
2021/05/24 12:30:13;;;;;;;;;;;;;;;;;;6169799;28;20141;-70
2021/05/24 12:33:15;;;;;;;3.60;3.20;;;;;;;;;;6173524;28;20053;-73
2021/05/24 12:36:19;;;;;;;4.63;3.10;;;;;;;;;;6157891;28;20086;-70
2021/05/24 12:39:21;;;;;;;3.53;3.05;;;;;;;;;;6162609;28;20134;-71
2021/05/24 12:42:23;;;;;;;4.82;3.05;;;;;;;;;;6160585;28;20628;-72
2021/05/24 12:45:26;;;;;;;5.80;3.20;;;;;;;;;;6158810;28;20046;-71
2021/05/24 12:48:29;;;;;;;3.60;2.70;;;;;;;;;;6165175;28;20552;-71
2021/05/24 12:51:31;;;;;;;4.23;2.57;;;;;;;;;;6160800;28;20430;-72
2021/05/24 12:54:44;;;;;;;4.20;3.08;;;;;;;;;;6165420;28;20466;-71
2021/05/24 12:57:48;;;;;;;4.40;2.78;;;;;;;;;;6163381;28;20039;-74
2021/05/24 13:00:51;;;;;;;3.63;2.80;;;;;;;;;;6159016;28;20166;-72
2021/05/24 13:03:54;;;;;;;7.30;3.08;;;;;;;;;;6164460;28;20047;-72
2021/05/24 13:06:57;;;;;;;4.43;2.63;;;;;;;;;;6157434;28;20050;-73
2021/05/24 13:10:06;;;;;;;3.10;2.15;;;;;;;;;;6163681;28;20465;-71
2021/05/24 13:13:14;;;;;;;6.22;2.00;;;;;;;;;;6156316;28;20065;-70
2021/05/24 13:16:26;;;;;;;2.83;2.03;;;;;;;;;;6157721;28;20154;-70
2021/05/24 13:19:40;;;;;;;4.32;2.30;;;;;;;;;;6159464;28;20059;-72
2021/05/24 13:23:05;;;;;;;4.78;2.45;;;;;;;;;;6164881;28;20612;-70
2021/05/24 13:29:41;;;;;;;3.45;2.22;;;;;;;;;;6135036;28;20050;-72
2021/05/24 13:32:42;;;;;;;4.88;2.47;;;;;;;;;;6162701;28;20083;-70
2021/05/24 13:35:43;;;;;;;3.28;2.30;;;;;;;;;;6161057;28;20466;-71
2021/05/24 13:39:16;;;;;;;2.50;2.00;;;;;;;;;;6157251;28;20112;-70
2021/05/24 13:42:17;;;;;;;2.60;1.45;;;;;;;;;;6131673;28;20062;-70
2021/05/24 13:45:21;;;;;;;3.08;1.60;;;;;;;;;;6161562;28;20453;-71
2021/05/24 13:48:22;;;;;;;3.83;1.75;;;;;;;;;;6164306;28;20605;-71
2021/05/24 13:51:26;;;;;;;3.60;2.25;;;;;;;;;;6154880;28;20105;-70
2021/05/24 13:54:27;;;;;;;5.15;2.22;;;;;;;;;;6163068;28;20054;-71
2021/05/24 13:57:28;;;;;;;4.25;2.70;;;;;;;;;;6158720;28;20077;-71
2021/05/24 14:00:31;;;;;;;5.13;2.50;;;;;;;;;;6159829;28;20932;-72
2021/05/24 14:03:32;;;;;;;3.70;2.47;;;;;;;;;;6159313;28;20066;-71
2021/05/24 14:06:33;;;;;;;3.58;2.30;;;;;;;;;;6161611;28;20039;-73
2021/05/24 14:09:35;;;;;;;3.30;2.53;;;;;;;;;;6163961;28;20078;-73
2021/05/24 14:12:36;;;;;;;4.05;2.40;;;;;;;;;;6153747;28;20059;-71
2021/05/24 14:15:38;;;;;;;2.25;2.00;;;;;;;;;;6156180;28;20050;-73
2021/05/24 14:18:39;;;;;;;3.13;2.35;;;;;;;;;;6159874;28;20047;-72
2021/05/24 14:21:40;;;;;;;4.40;2.58;;;;;;;;;;6157565;28;20055;-74
2021/05/24 14:24:41;;;;;;;3.80;2.53;;;;;;;;;;6159718;28;20043;-70
2021/05/24 14:27:42;;;;;;;4.82;2.67;;;;;;;;;;6159662;28;20050;-72
2021/05/24 14:30:45;;;;;;;2.92;2.10;;;;;;;;;;6154239;28;20047;-72
2021/05/24 14:33:46;;;;;;;2.75;2.08;;;;;;;;;;6159175;28;20055;-72
2021/05/24 14:36:47;;;;;;;4.30;1.83;;;;;;;;;;6157585;28;20058;-74
2021/05/24 14:39:48;;;;;;;1.90;1.23;;;;;;;;;;6161103;28;20077;-75
2021/05/24 14:42:50;;;;;;;2.72;1.48;;;;;;;;;;6159518;28;20913;-71
2021/05/24 14:45:54;;;;;;;2.45;1.50;;;;;;;;;;6159761;28;20062;-76
2021/05/24 14:48:57;;;;;;;3.00;1.52;;;;;;;;;;6162668;28;20054;-70
2021/05/24 14:51:59;;;;;;;2.40;1.77;;;;;;;;;;6161773;28;20485;-74
2021/05/24 14:55:03;;;;;;;3.67;2.78;;;;;;;;;;6163904;28;20528;-72
2021/05/24 14:58:05;;;;;;;2.70;1.98;;;;;;;;;;6159569;28;20046;-72
2021/05/24 15:01:07;;;;;;;2.38;1.98;;;;;;;;;;6170026;28;20418;-72
2021/05/24 15:04:08;;;;;;;2.78;1.95;;;;;;;;;;6159594;28;20485;-71
2021/05/24 15:07:09;;;;;;;2.65;2.28;;;;;;;;;;6126376;28;20501;-75
2021/05/24 15:10:11;;;;;;;2.88;1.73;;;;;;;;;;6159990;28;20071;-73
2021/05/24 15:13:12;;;;;;;4.03;2.10;;;;;;;;;;6154756;28;20142;-74
2021/05/24 15:16:14;;;;;;;3.00;1.92;;;;;;;;;;6153422;28;20178;-72
2021/05/24 15:19:15;;;;;;;2.53;2.20;;;;;;;;;;6155259;28;20043;-73
2021/05/24 15:22:18;;;;;;;3.60;2.53;;;;;;;;;;6159429;28;20095;-73
2021/05/24 15:25:20;;;;;;;3.42;2.35;;;;;;;;;;6166015;28;20045;-73
2021/05/24 15:28:21;;;;;;;3.42;2.55;;;;;;;;;;6164143;28;20054;-72
2021/05/24 15:31:26;;;;;;;3.83;2.83;;;;;;;;;;6158096;28;20422;-73
2021/05/24 15:34:28;;;;;;;6.10;3.03;;;;;;;;;;6162013;28;20063;-73
2021/05/24 15:37:29;;;;;;;4.25;3.13;;;;;;;;;;6159011;28;20058;-72
2021/05/24 15:40:30;;;;;;;5.13;2.83;;;;;;;;;;6165048;28;20078;-73
2021/05/24 15:43:31;;;;;;;3.15;2.65;;;;;;;;;;6160142;28;20047;-72
2021/05/24 15:46:33;;;;;;;4.82;2.72;;;;;;;;;;6161374;28;20604;-71
2021/05/24 15:49:34;;;;;;;3.80;2.60;;;;;;;;;;6160115;28;20142;-71
2021/05/24 15:52:36;;;;;;;3.72;2.65;;;;;;;;;;6164873;28;20118;-73
2021/05/24 15:55:38;;;;;;;3.67;2.10;;;;;;;;;;6158593;28;20059;-72
2021/05/24 15:58:41;;;;;;;3.00;1.92;;;;;;;;;;6163885;28;20047;-71
2021/05/24 16:01:44;;;;;;;2.30;2.03;;;;;;;;;;6158365;28;20125;-72
2021/05/24 16:04:45;;;;;;;4.38;2.42;;;;;;;;;;6156921;28;20510;-72
2021/05/24 16:07:46;;;;;;;3.30;2.17;;;;;;;;;;6164156;28;20138;-72
2021/05/24 16:10:49;;;;;;;3.47;2.10;;;;;;;;;;6166578;28;20062;-71
2021/05/24 16:13:50;;;;;;;5.72;3.38;;;;;;;;;;6162916;28;20054;-72
2021/05/24 16:16:52;;;;;;;3.45;2.70;;;;;;;;;;6164376;28;20046;-71
2021/05/24 16:19:54;;;;;;;4.97;2.92;;;;;;;;;;6154348;28;20051;-71
2021/05/24 16:23:03;;;;;;;4.35;3.17;;;;;;;;;;6155042;28;20765;-80
2021/05/24 16:26:11;;;;;;;3.67;2.30;;;;;;;;;;6160037;28;20057;-71
2021/05/24 16:29:12;;;;;;;3.20;2.72;;;;;;;;;;6155213;28;20085;-74
2021/05/24 16:32:14;;;;;;;4.13;2.90;;;;;;;;;;6158455;28;20198;-75
2021/05/24 16:35:15;;;;;;;4.63;2.88;;;;;;;;;;6167012;28;20402;-72
2021/05/24 16:38:22;;;;;;;4.40;2.90;;;;;;;;;;6167130;28;20069;-75
2021/05/24 16:41:23;;;;;;;3.50;2.72;;;;;;;;;;6167675;28;20055;-71
2021/05/24 16:44:24;;;;;;;2.60;2.35;;;;;;;;;;6170557;28;20043;-74
2021/05/24 16:47:27;;;;;;;3.63;2.65;;;;;;;;;;6161796;28;20141;-72
2021/05/24 16:50:28;;;;;;;2.85;2.40;;;;;;;;;;6162059;28;20407;-72
2021/05/24 16:53:29;;;;;;;3.60;2.33;;;;;;;;;;6167694;28;20145;-74
2021/05/24 16:56:30;;;;;;;4.28;1.50;;;;;;;;;;6165900;28;20047;-72
2021/05/24 16:59:31;;;;;;;2.45;1.70;;;;;;;;;;6163384;28;20050;-72
2021/05/24 17:02:34;;;;;;;2.40;1.88;;;;;;;;;;6162243;28;20101;-72
2021/05/24 17:05:37;;;;;;;2.88;1.63;;;;;;;;;;6160735;28;20087;-72
2021/05/24 17:08:38;;;;;;;2.53;1.70;;;;;;;;;;6163061;28;20046;-72
2021/05/24 17:11:39;;;;;;;4.43;1.80;;;;;;;;;;6156994;28;20441;-72
2021/05/24 17:14:40;;;;;;;2.72;1.80;;;;;;;;;;6157774;28;20466;-72
2021/05/24 17:17:42;;;;;;;2.45;1.77;;;;;;;;;;6166685;28;20109;-71
2021/05/24 17:20:43;;;;;;;2.58;1.83;;;;;;;;;;6169970;28;20082;-71
2021/05/24 17:23:44;;;;;;;2.25;2.00;;;;;;;;;;6155971;28;20110;-73
2021/05/24 17:26:45;;;;;;;3.20;2.08;;;;;;;;;;6157720;28;20747;-71
2021/05/24 17:29:46;;;;;;;2.70;2.20;;;;;;;;;;6157138;28;20134;-72
2021/05/24 17:32:49;;;;;;;5.15;2.45;;;;;;;;;;6164679;28;20055;-73
2021/05/24 17:35:50;;;;;;;3.55;2.47;;;;;;;;;;6151577;28;20082;-74
2021/05/24 17:38:51;;;;;;;3.97;2.50;;;;;;;;;;6166457;28;20112;-73
2021/05/24 17:41:52;;;;;;;3.15;2.58;;;;;;;;;;6166204;28;20119;-70
2021/05/24 17:44:54;;;;;;;3.28;2.80;;;;;;;;;;6155027;28;20388;-72
2021/05/24 17:47:57;;;;;;;3.20;2.90;;;;;;;;;;6158836;28;20063;-72
2021/05/24 17:51:01;;;;;;;3.95;2.40;;;;;;;;;;6153371;28;20054;-71
2021/05/24 17:54:03;;;;;;;3.92;2.22;;;;;;;;;;6154610;28;20058;-72
2021/05/24 17:57:04;;;;;;;3.80;2.50;;;;;;;;;;6160786;28;20077;-71
2021/05/24 18:00:07;;;;;;;4.10;2.53;;;;;;;;;;6158754;28;20398;-74
2021/05/24 18:03:09;;;;;;;3.47;2.28;;;;;;;;;;6158977;28;20057;-72
2021/05/24 18:06:10;;;;;;;4.10;1.70;;;;;;;;;;6161250;28;20057;-71
2021/05/24 18:09:11;;;;;;;2.65;1.63;;;;;;;;;;6165237;28;20047;-71
2021/05/24 18:12:12;;;;;;;2.80;2.10;;;;;;;;;;6162481;28;20492;-70
2021/05/24 18:15:19;;;;;;;3.38;2.35;;;;;;;;;;6164386;28;20545;-71
2021/05/24 18:18:26;;;;;;;2.80;2.10;;;;;;;;;;6165123;28;20410;-71
2021/05/24 18:21:27;;;;;;;4.15;2.60;;;;;;;;;;6152766;28;20062;-72
2021/05/24 18:24:28;;;;;;;3.33;2.80;;;;;;;;;;6167288;28;20053;-72
2021/05/24 18:27:29;;;;;;;5.30;3.00;;;;;;;;;;6152813;28;20049;-72
2021/05/24 18:30:33;;;;;;;4.57;3.78;;;;;;;;;;6155164;28;20490;-72
2021/05/24 18:33:35;;;;;;;4.35;3.95;;;;;;;;;;6165454;28;20145;-70
2021/05/24 18:36:37;;;;;;;7.45;5.68;;;;;;;;;;6159486;28;20039;-72